createdAt,value
2018-09-18T00:00:53.801Z,56.48
2018-09-18T00:01:53.838Z,57.29
2018-09-18T00:02:53.779Z,56.99
2018-09-18T00:03:53.778Z,57.09
2018-09-18T00:04:53.756Z,57.29
2018-09-18T00:05:53.744Z,56.99
2018-09-18T00:06:53.741Z,57.50
2018-09-18T00:07:53.758Z,57.80
2018-09-18T00:08:53.710Z,56.48
2018-09-18T00:09:53.714Z,56.99
2018-09-18T00:10:53.696Z,56.69
2018-09-18T00:11:53.675Z,56.79
2018-09-18T00:12:53.666Z,57.29
2018-09-18T00:13:53.685Z,56.89
2018-09-18T00:14:53.645Z,57.09
2018-09-18T00:15:53.645Z,57.09
2018-09-18T00:16:53.623Z,57.60
2018-09-18T00:17:53.609Z,56.99
2018-09-18T00:18:53.599Z,57.60
2018-09-18T00:19:53.659Z,57.40
2018-09-18T00:20:53.578Z,57.90
2018-09-18T00:21:53.580Z,57.09
2018-09-18T00:22:53.559Z,57.29
2018-09-18T00:23:53.553Z,57.40
2018-09-18T00:24:53.529Z,57.60
2018-09-18T00:25:53.555Z,57.62
2018-09-18T00:26:53.508Z,57.42
2018-09-18T00:27:53.504Z,57.50
2018-09-18T00:28:53.494Z,57.40
2018-09-18T00:29:53.485Z,57.62
2018-09-18T00:30:53.473Z,57.83
2018-09-18T00:31:53.481Z,57.73
2018-09-18T00:32:53.444Z,57.93
2018-09-18T00:33:53.431Z,58.34
2018-09-18T00:34:53.419Z,58.34
2018-09-18T00:35:53.408Z,58.23
2018-09-18T00:36:53.402Z,58.23
2018-09-18T00:37:53.432Z,58.94
2018-09-18T00:38:53.384Z,58.94
2018-09-18T00:39:53.371Z,58.23
2018-09-18T00:40:53.363Z,58.74
2018-09-18T00:41:53.357Z,58.94
2018-09-18T00:42:53.338Z,58.74
2018-09-18T00:43:53.386Z,58.54
2018-09-18T00:44:53.306Z,58.84
2018-09-18T00:45:53.313Z,58.84
2018-09-18T00:46:53.323Z,58.84
2018-09-18T00:47:53.299Z,58.84
2018-09-18T00:48:53.300Z,58.54
2018-09-18T00:49:53.293Z,58.74
2018-09-18T00:50:53.271Z,59.01
2018-09-18T00:51:53.248Z,58.84
2018-09-18T00:52:53.228Z,58.71
2018-09-18T00:53:53.203Z,58.71
2018-09-18T00:54:53.214Z,58.61
2018-09-18T00:55:53.232Z,59.25
2018-09-18T00:56:53.175Z,59.42
2018-09-18T00:57:53.165Z,59.05
2018-09-18T00:58:53.152Z,59.22
2018-09-18T00:59:53.134Z,59.14
2018-09-18T01:00:53.126Z,59.45
2018-09-18T01:01:53.161Z,59.25
2018-09-18T01:02:53.142Z,59.45
2018-09-18T01:03:53.123Z,59.45
2018-09-18T01:04:53.074Z,59.55
2018-09-18T01:05:53.074Z,59.14
2018-09-18T01:06:53.053Z,59.34
2018-09-18T01:07:53.072Z,59.27
2018-09-18T01:08:53.032Z,59.27
2018-09-18T01:09:53.021Z,59.17
2018-09-18T01:10:53.013Z,60.28
2018-09-18T01:11:53.019Z,58.94
2018-09-18T01:12:52.990Z,60.06
2018-09-18T01:13:53.021Z,59.88
2018-09-18T01:14:52.986Z,59.68
2018-09-18T01:15:52.960Z,59.99
2018-09-18T01:16:52.937Z,60.49
2018-09-18T01:17:52.928Z,60.08
2018-09-18T01:18:52.927Z,59.58
2018-09-18T01:19:52.949Z,59.95
2018-09-18T01:20:52.906Z,60.36
2018-09-18T01:21:52.884Z,60.06
2018-09-18T01:22:52.872Z,60.36
2018-09-18T01:23:52.858Z,60.77
2018-09-18T01:24:52.847Z,60.66
2018-09-18T01:25:52.893Z,59.65
2018-09-18T01:26:52.856Z,59.83
2018-09-18T01:27:52.836Z,59.92
2018-09-18T01:28:52.804Z,59.52
2018-09-18T01:29:52.792Z,59.52
2018-09-18T01:30:52.777Z,60.06
2018-09-18T01:31:52.812Z,59.85
2018-09-18T01:32:52.755Z,59.65
2018-09-18T01:33:52.744Z,60.46
2018-09-18T01:34:52.740Z,59.65
2018-09-18T01:35:52.731Z,60.36
2018-09-18T01:36:52.727Z,60.77
2018-09-18T01:37:52.733Z,60.77
2018-09-18T01:38:52.727Z,60.77
2018-09-18T01:39:52.699Z,60.74
2018-09-18T01:40:52.686Z,60.66
2018-09-18T01:41:52.663Z,61.04
2018-09-18T01:42:52.674Z,60.63
2018-09-18T01:43:52.771Z,60.84
2018-09-18T01:44:52.619Z,60.84
2018-09-18T01:45:52.610Z,60.43
2018-09-18T01:46:52.653Z,60.43
2018-09-18T01:47:52.594Z,60.74
2018-09-18T01:48:52.581Z,60.43
2018-09-18T01:49:52.622Z,60.74
2018-09-18T01:50:52.551Z,60.53
2018-09-18T01:51:52.545Z,60.74
2018-09-18T01:52:52.536Z,60.63
2018-09-18T01:53:52.516Z,60.84
2018-09-18T01:54:52.504Z,60.53
2018-09-18T01:55:52.526Z,60.84
2018-09-18T01:56:52.482Z,60.33
2018-09-18T01:57:52.493Z,60.63
2018-09-18T01:58:52.473Z,60.94
2018-09-18T01:59:52.463Z,60.63
2018-09-18T02:00:52.445Z,60.63
2018-09-18T02:01:52.461Z,59.39
2018-09-18T02:02:52.427Z,60.50
2018-09-18T02:03:52.405Z,60.41
2018-09-18T02:04:52.393Z,59.70
2018-09-18T02:05:52.390Z,60.00
2018-09-18T02:06:52.426Z,59.59
2018-09-18T02:07:52.406Z,59.97
2018-09-18T02:08:52.354Z,59.16
2018-09-18T02:09:52.341Z,59.23
2018-09-18T02:10:52.323Z,59.14
2018-09-18T02:11:52.319Z,58.60
2018-09-18T02:12:52.313Z,58.60
2018-09-18T02:13:52.357Z,58.70
2018-09-18T02:14:52.282Z,58.09
2018-09-18T02:15:52.291Z,57.46
2018-09-18T02:16:52.280Z,56.93
2018-09-18T02:17:52.248Z,57.54
2018-09-18T02:18:52.253Z,56.63
2018-09-18T02:19:52.275Z,57.41
2018-09-18T02:20:52.233Z,56.40
2018-09-18T02:21:52.225Z,56.20
2018-09-18T02:22:52.233Z,56.17
2018-09-18T02:23:52.183Z,55.57
2018-09-18T02:24:52.221Z,55.46
2018-09-18T02:25:52.245Z,55.97
2018-09-18T02:26:52.163Z,55.54
2018-09-18T02:27:52.156Z,55.44
2018-09-18T02:28:52.165Z,55.54
2018-09-18T02:29:52.128Z,54.83
2018-09-18T02:30:52.134Z,55.14
2018-09-18T02:31:52.141Z,55.04
2018-09-18T02:32:52.118Z,54.83
2018-09-18T02:33:52.085Z,54.94
2018-09-18T02:34:52.084Z,55.34
2018-09-18T02:35:52.052Z,55.97
2018-09-18T02:36:52.045Z,55.57
2018-09-18T02:37:52.089Z,55.46
2018-09-18T02:38:52.027Z,55.36
2018-09-18T02:39:52.006Z,56.07
2018-09-18T02:40:52.004Z,56.17
2018-09-18T02:41:51.979Z,56.17
2018-09-18T02:42:51.972Z,56.17
2018-09-18T02:43:52.009Z,56.30
2018-09-18T02:44:52.006Z,55.59
2018-09-18T02:45:51.953Z,55.39
2018-09-18T02:46:51.950Z,56.17
2018-09-18T02:47:51.922Z,55.66
2018-09-18T02:48:51.903Z,55.44
2018-09-18T02:49:51.932Z,54.94
2018-09-18T02:50:51.885Z,54.10
2018-09-18T02:51:51.882Z,54.30
2018-09-18T02:52:51.867Z,53.50
2018-09-18T02:53:51.907Z,53.70
2018-09-18T02:54:51.858Z,54.08
2018-09-18T02:55:51.882Z,53.58
2018-09-18T02:56:51.817Z,53.47
2018-09-18T02:57:51.809Z,52.47
2018-09-18T02:58:51.797Z,53.05
2018-09-18T02:59:51.793Z,52.94
2018-09-18T03:00:51.782Z,53.78
2018-09-18T03:01:51.794Z,52.77
2018-09-18T03:02:51.751Z,53.05
2018-09-18T03:03:51.763Z,52.26
2018-09-18T03:04:51.740Z,53.17
2018-09-18T03:05:51.722Z,53.17
2018-09-18T03:06:51.717Z,53.58
2018-09-18T03:07:51.726Z,53.50
2018-09-18T03:08:51.685Z,53.40
2018-09-18T03:09:51.687Z,54.10
2018-09-18T03:10:51.666Z,53.58
2018-09-18T03:11:51.653Z,53.27
2018-09-18T03:12:51.652Z,52.47
2018-09-18T03:13:51.682Z,52.77
2018-09-18T03:14:51.623Z,52.26
2018-09-18T03:15:51.630Z,53.38
2018-09-18T03:16:51.593Z,53.98
2018-09-18T03:17:51.598Z,53.50
2018-09-18T03:18:51.569Z,53.40
2018-09-18T03:19:51.606Z,53.50
2018-09-18T03:20:51.552Z,53.60
2018-09-18T03:21:51.541Z,53.60
2018-09-18T03:22:51.551Z,53.50
2018-09-18T03:23:51.539Z,53.40
2018-09-18T03:24:51.507Z,53.80
2018-09-18T03:25:51.540Z,54.21
2018-09-18T03:26:51.488Z,53.80
2018-09-18T03:27:51.471Z,54.10
2018-09-18T03:28:51.464Z,54.33
2018-09-18T03:29:51.455Z,54.03
2018-09-18T03:30:51.444Z,53.83
2018-09-18T03:31:51.476Z,54.00
2018-09-18T03:32:51.448Z,53.72
2018-09-18T03:33:51.410Z,53.63
2018-09-18T03:34:51.591Z,53.92
2018-09-18T03:35:51.376Z,54.36
2018-09-18T03:36:51.363Z,54.46
2018-09-18T03:37:51.387Z,54.96
2018-09-18T03:38:51.353Z,55.06
2018-09-18T03:39:51.332Z,55.16
2018-09-18T03:40:51.331Z,54.13
2018-09-18T03:41:51.322Z,54.66
2018-09-18T03:42:51.298Z,54.73
2018-09-18T03:43:51.317Z,54.16
2018-09-18T03:44:51.310Z,54.56
2018-09-18T03:45:51.268Z,54.76
2018-09-18T03:46:51.257Z,54.66
2018-09-18T03:47:51.250Z,54.43
2018-09-18T03:48:51.263Z,54.33
2018-09-18T03:49:51.314Z,54.46
2018-09-18T03:50:51.218Z,54.43
2018-09-18T03:51:51.218Z,54.43
2018-09-18T03:52:51.189Z,54.66
2018-09-18T03:53:51.194Z,54.46
2018-09-18T03:54:51.174Z,54.13
2018-09-18T03:55:51.235Z,53.72
2018-09-18T03:56:51.153Z,53.80
2018-09-18T03:57:51.146Z,53.80
2018-09-18T03:58:51.129Z,53.50
2018-09-18T03:59:51.111Z,53.40
2018-09-18T04:00:51.111Z,53.50
2018-09-18T04:01:51.116Z,53.80
2018-09-18T04:02:51.140Z,54.21
2018-09-18T04:03:51.084Z,53.90
2018-09-18T04:04:51.089Z,53.72
2018-09-18T04:05:51.055Z,53.70
2018-09-18T04:06:51.041Z,53.50
2018-09-18T04:07:51.059Z,53.60
2018-09-18T04:08:51.020Z,53.40
2018-09-18T04:09:50.999Z,53.60
2018-09-18T04:10:50.988Z,53.40
2018-09-18T04:11:50.975Z,53.20
2018-09-18T04:12:50.965Z,53.60
2018-09-18T04:13:50.997Z,53.30
2018-09-18T04:14:50.954Z,54.30
2018-09-18T04:15:50.942Z,54.21
2018-09-18T04:16:50.924Z,54.10
2018-09-18T04:17:50.911Z,53.63
2018-09-18T04:18:50.958Z,54.03
2018-09-18T04:19:50.939Z,54.43
2018-09-18T04:20:50.876Z,54.63
2018-09-18T04:21:50.882Z,54.76
2018-09-18T04:22:50.858Z,55.77
2018-09-18T04:23:50.847Z,55.69
2018-09-18T04:24:50.830Z,55.69
2018-09-18T04:25:50.867Z,55.79
2018-09-18T04:26:50.812Z,55.92
2018-09-18T04:27:50.804Z,56.23
2018-09-18T04:28:50.796Z,56.12
2018-09-18T04:29:50.774Z,56.65
2018-09-18T04:30:50.769Z,57.06
2018-09-18T04:31:50.794Z,56.76
2018-09-18T04:32:50.741Z,56.78
2018-09-18T04:33:50.748Z,57.59
2018-09-18T04:34:50.724Z,57.09
2018-09-18T04:35:50.713Z,57.52
2018-09-18T04:36:50.696Z,58.12
2018-09-18T04:37:50.715Z,58.02
2018-09-18T04:38:50.674Z,58.63
2018-09-18T04:39:50.662Z,58.65
2018-09-18T04:40:50.674Z,58.73
2018-09-18T04:41:50.642Z,58.25
2018-09-18T04:42:50.631Z,59.16
2018-09-18T04:43:50.669Z,59.27
2018-09-18T04:44:50.609Z,59.06
2018-09-18T04:45:50.604Z,60.20
2018-09-18T04:46:50.583Z,60.20
2018-09-18T04:47:50.635Z,60.10
2018-09-18T04:48:50.581Z,59.59
2018-09-18T04:49:50.591Z,60.71
2018-09-18T04:50:50.540Z,60.74
2018-09-18T04:51:50.550Z,60.41
2018-09-18T04:52:50.517Z,60.74
2018-09-18T04:53:50.515Z,61.14
2018-09-18T04:54:50.585Z,61.14
2018-09-18T04:55:50.554Z,61.04
2018-09-18T04:56:50.477Z,61.35
2018-09-18T04:57:50.469Z,61.14
2018-09-18T04:58:50.452Z,60.84
2018-09-18T04:59:50.452Z,60.81
2018-09-18T05:00:50.448Z,60.41
2018-09-18T05:01:50.627Z,60.00
2018-09-18T05:02:50.425Z,58.96
2018-09-18T05:03:50.423Z,59.23
2018-09-18T05:04:50.394Z,59.03
2018-09-18T05:05:50.407Z,58.70
2018-09-18T05:06:50.372Z,57.89
2018-09-18T05:07:50.407Z,57.26
2018-09-18T05:08:50.344Z,57.67
2018-09-18T05:09:50.355Z,56.63
2018-09-18T05:10:50.358Z,56.73
2018-09-18T05:11:50.321Z,56.83
2018-09-18T05:12:50.310Z,56.50
2018-09-18T05:13:50.362Z,56.70
2018-09-18T05:14:50.285Z,56.40
2018-09-18T05:15:50.287Z,56.40
2018-09-18T05:16:50.280Z,56.17
2018-09-18T05:17:50.257Z,55.46
2018-09-18T05:18:50.238Z,55.87
2018-09-18T05:19:50.314Z,55.24
2018-09-18T05:20:50.213Z,55.24
2018-09-18T05:21:50.210Z,55.74
2018-09-18T05:22:50.202Z,55.24
2018-09-18T05:23:50.184Z,55.44
2018-09-18T05:24:50.177Z,54.91
2018-09-18T05:25:50.195Z,55.01
2018-09-18T05:26:50.153Z,55.11
2018-09-18T05:27:50.139Z,55.21
2018-09-18T05:28:50.150Z,54.73
2018-09-18T05:29:50.123Z,55.24
2018-09-18T05:30:50.101Z,54.94
2018-09-18T05:31:50.129Z,55.94
2018-09-18T05:32:50.080Z,55.24
2018-09-18T05:33:50.160Z,55.64
2018-09-18T05:34:50.107Z,55.54
2018-09-18T05:35:50.049Z,55.54
2018-09-18T05:36:50.079Z,55.74
2018-09-18T05:37:50.098Z,55.14
2018-09-18T05:38:50.059Z,55.34
2018-09-18T05:39:50.014Z,55.34
2018-09-18T05:40:50.030Z,56.15
2018-09-18T05:41:50.030Z,56.07
2018-09-18T05:42:50.028Z,56.27
2018-09-18T05:43:49.995Z,56.07
2018-09-18T05:44:49.951Z,55.97
2018-09-18T05:45:49.964Z,56.17
2018-09-18T05:46:49.929Z,56.10
2018-09-18T05:47:49.911Z,56.17
2018-09-18T05:48:49.904Z,56.30
2018-09-18T05:49:49.936Z,56.70
2018-09-18T05:50:49.887Z,57.41
2018-09-18T05:51:49.881Z,57.61
2018-09-18T05:52:49.901Z,57.51
2018-09-18T05:53:49.849Z,58.52
2018-09-18T05:54:49.841Z,58.22
2018-09-18T05:55:49.874Z,57.21
2018-09-18T05:56:49.846Z,57.18
2018-09-18T05:57:49.807Z,56.24
2018-09-18T05:58:49.809Z,56.75
2018-09-18T05:59:49.791Z,56.15
2018-09-18T06:00:49.788Z,56.12
2018-09-18T06:01:49.795Z,56.12
2018-09-18T06:02:49.757Z,55.89
2018-09-18T06:03:49.743Z,54.75
2018-09-18T06:04:49.742Z,54.35
2018-09-18T06:05:49.717Z,53.45
2018-09-18T06:06:49.714Z,53.92
2018-09-18T06:07:49.722Z,53.52
2018-09-18T06:08:49.682Z,52.29
2018-09-18T06:09:49.669Z,52.69
2018-09-18T06:10:49.660Z,53.50
2018-09-18T06:11:49.647Z,52.69
2018-09-18T06:12:49.636Z,52.89
2018-09-18T06:13:49.698Z,53.07
2018-09-18T06:14:49.616Z,51.97
2018-09-18T06:15:49.603Z,52.57
2018-09-18T06:16:49.588Z,52.57
2018-09-18T06:17:49.590Z,52.37
2018-09-18T06:18:49.624Z,52.37
2018-09-18T06:19:49.609Z,52.14
2018-09-18T06:20:49.544Z,52.37
2018-09-18T06:21:49.533Z,52.94
2018-09-18T06:22:49.528Z,52.74
2018-09-18T06:23:49.511Z,52.14
2018-09-18T06:24:49.513Z,52.14
2018-09-18T06:25:49.557Z,52.12
2018-09-18T06:26:49.473Z,51.72
2018-09-18T06:27:49.524Z,51.92
2018-09-18T06:28:49.491Z,51.79
2018-09-18T06:29:49.458Z,51.19
2018-09-18T06:30:49.437Z,51.29
2018-09-18T06:31:49.460Z,51.49
2018-09-18T06:32:49.409Z,51.39
2018-09-18T06:33:49.405Z,51.46
2018-09-18T06:34:49.388Z,51.26
2018-09-18T06:35:49.379Z,50.16
2018-09-18T06:36:49.388Z,50.86
2018-09-18T06:37:49.434Z,51.17
2018-09-18T06:38:49.334Z,51.17
2018-09-18T06:39:49.405Z,50.76
2018-09-18T06:40:49.412Z,50.24
2018-09-18T06:41:49.721Z,50.44
2018-09-18T06:42:49.294Z,50.74
2018-09-18T06:43:49.311Z,50.54
2018-09-18T06:44:49.280Z,49.81
2018-09-18T06:45:49.263Z,49.71
2018-09-18T06:46:49.262Z,50.01
2018-09-18T06:47:49.247Z,49.81
2018-09-18T06:48:49.241Z,50.31
2018-09-18T06:49:49.277Z,49.81
2018-09-18T06:50:49.226Z,49.89
2018-09-18T06:51:49.203Z,50.09
2018-09-18T06:52:49.184Z,49.99
2018-09-18T06:53:49.179Z,49.99
2018-09-18T06:54:49.173Z,49.99
2018-09-18T06:55:49.196Z,50.09
2018-09-18T06:56:49.137Z,49.99
2018-09-18T06:57:49.138Z,49.99
2018-09-18T06:58:49.147Z,49.89
2018-09-18T06:59:49.121Z,50.19
2018-09-18T07:00:49.106Z,49.66
2018-09-18T07:01:49.134Z,50.07
2018-09-18T07:02:49.130Z,49.87
2018-09-18T07:03:49.060Z,49.37
2018-09-18T07:04:49.077Z,49.24
2018-09-18T07:05:49.052Z,49.44
2018-09-18T07:06:49.057Z,49.34
2018-09-18T07:07:49.054Z,48.94
2018-09-18T07:08:49.009Z,49.54
2018-09-18T07:09:49.005Z,49.34
2018-09-18T07:10:48.996Z,49.64
2018-09-18T07:11:48.994Z,49.94
2018-09-18T07:12:48.972Z,49.32
2018-09-18T07:13:49.008Z,48.72
2018-09-18T07:14:48.952Z,49.72
2018-09-18T07:15:48.938Z,49.82
2018-09-18T07:16:48.921Z,48.72
2018-09-18T07:17:48.915Z,48.79
2018-09-18T07:18:48.911Z,49.59
2018-09-18T07:19:48.918Z,49.19
2018-09-18T07:20:48.876Z,49.19
2018-09-18T07:21:48.865Z,49.09
2018-09-18T07:22:48.857Z,48.97
2018-09-18T07:23:48.852Z,48.47
2018-09-18T07:24:48.951Z,48.57
2018-09-18T07:25:48.854Z,48.47
2018-09-18T07:26:48.814Z,48.57
2018-09-18T07:27:48.800Z,47.95
2018-09-18T07:28:48.794Z,48.14
2018-09-18T07:29:48.788Z,48.35
2018-09-18T07:30:48.767Z,48.05
2018-09-18T07:31:48.892Z,47.75
2018-09-18T07:32:48.759Z,48.02
2018-09-18T07:33:48.803Z,48.32
2018-09-18T07:34:48.746Z,48.02
2018-09-18T07:35:48.709Z,47.71
2018-09-18T07:36:48.700Z,47.71
2018-09-18T07:37:48.748Z,47.60
2018-09-18T07:38:48.683Z,47.30
2018-09-18T07:39:48.669Z,47.38
2018-09-18T07:40:48.665Z,47.28
2018-09-18T07:41:48.672Z,46.38
2018-09-18T07:42:48.644Z,46.36
2018-09-18T07:43:48.660Z,46.36
2018-09-18T07:44:48.647Z,46.16
2018-09-18T07:45:48.668Z,45.96
2018-09-18T07:46:48.616Z,46.16
2018-09-18T07:47:48.599Z,46.36
2018-09-18T07:48:48.580Z,45.66
2018-09-18T07:49:48.608Z,46.44
2018-09-18T07:50:48.550Z,46.56
2018-09-18T07:51:48.553Z,46.54
2018-09-18T07:52:48.543Z,45.84
2018-09-18T07:53:48.517Z,46.44
2018-09-18T07:54:48.546Z,46.34
2018-09-18T07:55:48.538Z,46.24
2018-09-18T07:56:48.492Z,45.82
2018-09-18T07:57:48.488Z,46.01
2018-09-18T07:58:48.459Z,46.01
2018-09-18T07:59:48.477Z,46.22
2018-09-18T08:00:48.448Z,46.00
2018-09-18T08:01:48.466Z,45.90
2018-09-18T08:02:48.411Z,46.09
2018-09-18T08:03:48.410Z,46.00
2018-09-18T08:04:48.412Z,46.00
2018-09-18T08:05:48.375Z,45.60
2018-09-18T08:06:48.392Z,45.08
2018-09-18T08:07:48.394Z,44.98
2018-09-18T08:08:48.358Z,45.37
2018-09-18T08:09:48.437Z,44.68
2018-09-18T08:10:48.372Z,45.08
2018-09-18T08:11:48.314Z,44.85
2018-09-18T08:12:48.296Z,44.96
2018-09-18T08:13:48.334Z,44.56
2018-09-18T08:14:48.280Z,44.36
2018-09-18T08:15:48.276Z,44.96
2018-09-18T08:16:48.260Z,44.16
2018-09-18T08:17:48.266Z,44.64
2018-09-18T08:18:48.321Z,44.64
2018-09-18T08:19:48.356Z,44.24
2018-09-18T08:20:48.220Z,44.64
2018-09-18T08:21:48.207Z,44.54
2018-09-18T08:22:48.187Z,44.64
2018-09-18T08:23:48.178Z,44.42
2018-09-18T08:24:48.163Z,43.92
2018-09-18T08:25:48.308Z,43.42
2018-09-18T08:26:48.151Z,44.42
2018-09-18T08:27:48.158Z,43.62
2018-09-18T08:28:48.156Z,43.90
2018-09-18T08:29:48.129Z,43.60
2018-09-18T08:30:48.106Z,42.91
2018-09-18T08:31:48.144Z,43.70
2018-09-18T08:32:48.128Z,43.68
2018-09-18T08:33:48.083Z,43.88
2018-09-18T08:34:48.066Z,43.98
2018-09-18T08:35:48.048Z,44.07
2018-09-18T08:36:48.041Z,43.85
2018-09-18T08:37:48.055Z,43.66
2018-09-18T08:38:48.045Z,43.46
2018-09-18T08:39:48.107Z,43.06
2018-09-18T08:40:48.016Z,42.96
2018-09-18T08:41:48.024Z,42.96
2018-09-18T08:42:47.995Z,42.65
2018-09-18T08:43:48.012Z,42.45
2018-09-18T08:44:47.951Z,42.25
2018-09-18T08:45:47.948Z,42.05
2018-09-18T08:46:47.939Z,42.72
2018-09-18T08:47:47.914Z,42.33
2018-09-18T08:48:47.906Z,41.63
2018-09-18T08:49:47.954Z,42.13
2018-09-18T08:50:47.927Z,41.63
2018-09-18T08:51:48.004Z,40.52
2018-09-18T08:52:47.866Z,40.62
2018-09-18T08:53:47.873Z,41.52
2018-09-18T08:54:47.848Z,41.81
2018-09-18T08:55:47.868Z,40.82
2018-09-18T08:56:47.839Z,40.72
2018-09-18T08:57:47.832Z,41.49
2018-09-18T08:58:47.788Z,41.60
2018-09-18T08:59:47.779Z,41.60
2018-09-18T09:00:47.772Z,40.58
2018-09-18T09:01:47.870Z,40.58
2018-09-18T09:02:47.753Z,41.08
2018-09-18T09:03:47.903Z,40.48
2018-09-18T09:04:47.742Z,40.48
2018-09-18T09:05:47.810Z,41.36
2018-09-18T09:06:47.723Z,41.75
2018-09-18T09:07:47.818Z,41.75
2018-09-18T09:08:47.828Z,40.66
2018-09-18T09:09:47.671Z,40.86
2018-09-18T09:10:47.722Z,40.96
2018-09-18T09:11:47.653Z,40.86
2018-09-18T09:12:47.643Z,40.64
2018-09-18T09:13:47.728Z,40.66
2018-09-18T09:14:47.682Z,40.84
2018-09-18T09:15:47.611Z,41.24
2018-09-18T09:16:47.604Z,41.73
2018-09-18T09:17:47.651Z,41.55
2018-09-18T09:18:47.612Z,41.46
2018-09-18T09:19:47.650Z,41.55
2018-09-18T09:20:47.671Z,41.75
2018-09-18T09:21:47.658Z,41.75
2018-09-18T09:22:47.652Z,41.55
2018-09-18T09:23:47.521Z,41.85
2018-09-18T09:24:47.591Z,42.14
2018-09-18T09:25:47.543Z,41.93
2018-09-18T09:26:47.568Z,42.03
2018-09-18T09:27:47.545Z,41.44
2018-09-18T09:28:47.499Z,41.44
2018-09-18T09:29:47.570Z,41.83
2018-09-18T09:30:47.460Z,42.03
2018-09-18T09:31:47.470Z,42.13
2018-09-18T09:32:47.423Z,41.53
2018-09-18T09:33:47.410Z,41.44
2018-09-18T09:34:47.416Z,42.03
2018-09-18T09:35:47.402Z,42.01
2018-09-18T09:36:47.466Z,41.52
2018-09-18T09:37:47.412Z,41.71
2018-09-18T09:38:47.436Z,41.81
2018-09-18T09:39:47.465Z,41.89
2018-09-18T09:40:47.325Z,41.71
2018-09-18T09:41:47.403Z,41.52
2018-09-18T09:42:47.305Z,41.81
2018-09-18T09:43:47.388Z,41.39
2018-09-18T09:44:47.342Z,41.59
2018-09-18T09:45:47.378Z,41.49
2018-09-18T09:46:47.273Z,41.59
2018-09-18T09:47:47.262Z,41.49
2018-09-18T09:48:47.255Z,42.08
2018-09-18T09:49:47.286Z,41.39
2018-09-18T09:50:47.227Z,41.89
2018-09-18T09:51:47.204Z,41.47
2018-09-18T09:52:47.209Z,40.80
2018-09-18T09:53:47.194Z,40.78
2018-09-18T09:54:47.187Z,42.07
2018-09-18T09:55:47.227Z,41.08
2018-09-18T09:56:47.213Z,41.38
2018-09-18T09:57:47.145Z,40.69
2018-09-18T09:58:47.132Z,41.38
2018-09-18T09:59:47.124Z,40.47
2018-09-18T10:00:47.141Z,40.64
2018-09-18T10:01:47.139Z,41.33
2018-09-18T10:02:47.098Z,40.84
2018-09-18T10:03:47.080Z,41.43
2018-09-18T10:04:47.071Z,40.74
2018-09-18T10:05:47.072Z,41.14
2018-09-18T10:06:47.068Z,40.74
2018-09-18T10:07:47.068Z,40.72
2018-09-18T10:08:47.018Z,41.31
2018-09-18T10:09:47.028Z,40.72
2018-09-18T10:10:47.167Z,40.80
2018-09-18T10:11:47.023Z,40.31
2018-09-18T10:12:46.991Z,40.41
2018-09-18T10:13:47.080Z,40.69
2018-09-18T10:14:46.968Z,40.51
2018-09-18T10:15:46.946Z,39.81
2018-09-18T10:16:46.947Z,40.31
2018-09-18T10:17:46.958Z,39.89
2018-09-18T10:18:46.915Z,40.98
2018-09-18T10:19:46.954Z,40.48
2018-09-18T10:20:46.902Z,39.50
2018-09-18T10:21:46.887Z,40.29
2018-09-18T10:22:46.890Z,40.69
2018-09-18T10:23:46.880Z,40.48
2018-09-18T10:24:46.843Z,40.78
2018-09-18T10:25:46.885Z,40.58
2018-09-18T10:26:46.950Z,40.58
2018-09-18T10:27:46.828Z,40.98
2018-09-18T10:28:46.812Z,40.37
2018-09-18T10:29:46.826Z,40.56
2018-09-18T10:30:46.787Z,40.05
2018-09-18T10:31:46.820Z,40.16
2018-09-18T10:32:46.852Z,39.86
2018-09-18T10:33:46.751Z,41.53
2018-09-18T10:34:46.740Z,41.63
2018-09-18T10:35:46.763Z,41.83
2018-09-18T10:36:46.713Z,41.83
2018-09-18T10:37:46.753Z,42.12
2018-09-18T10:38:46.728Z,41.61
2018-09-18T10:39:46.703Z,41.41
2018-09-18T10:40:46.707Z,41.73
2018-09-18T10:41:46.694Z,41.43
2018-09-18T10:42:46.777Z,41.83
2018-09-18T10:43:46.724Z,41.83
2018-09-18T10:44:46.658Z,41.61
2018-09-18T10:45:46.629Z,41.22
2018-09-18T10:46:46.619Z,41.29
2018-09-18T10:47:46.619Z,40.61
2018-09-18T10:48:46.587Z,40.41
2018-09-18T10:49:46.629Z,40.61
2018-09-18T10:50:46.575Z,40.51
2018-09-18T10:51:46.567Z,39.72
2018-09-18T10:52:46.573Z,39.72
2018-09-18T10:53:46.535Z,40.92
2018-09-18T10:54:46.520Z,39.74
2018-09-18T10:55:46.554Z,40.33
2018-09-18T10:56:46.509Z,40.72
2018-09-18T10:57:46.505Z,39.34
2018-09-18T10:58:46.476Z,39.72
2018-09-18T10:59:46.507Z,40.01
2018-09-18T11:00:46.466Z,39.92
2018-09-18T11:01:46.526Z,39.13
2018-09-18T11:02:46.464Z,39.72
2018-09-18T11:03:46.426Z,38.82
2018-09-18T11:04:46.438Z,39.31
2018-09-18T11:05:46.408Z,37.93
2018-09-18T11:06:46.407Z,38.03
2018-09-18T11:07:46.552Z,38.62
2018-09-18T11:08:46.406Z,37.63
2018-09-18T11:09:46.444Z,35.57
2018-09-18T11:10:46.378Z,35.85
2018-09-18T11:11:46.339Z,37.32
2018-09-18T11:12:46.325Z,37.52
2018-09-18T11:13:46.368Z,37.50
2018-09-18T11:14:46.360Z,37.70
2018-09-18T11:15:46.390Z,37.72
2018-09-18T11:16:46.393Z,37.30
2018-09-18T11:17:46.275Z,34.66
2018-09-18T11:18:46.283Z,34.75
2018-09-18T11:19:46.361Z,35.05
2018-09-18T11:20:46.395Z,34.93
2018-09-18T11:21:46.270Z,35.23
2018-09-18T11:22:46.226Z,34.75
2018-09-18T11:23:54.293Z,34.36
2018-09-18T11:24:46.256Z,34.56
2018-09-18T11:25:55.656Z,35.93
2018-09-18T11:26:54.011Z,34.44
2018-09-18T11:27:46.167Z,35.33
2018-09-18T11:28:46.167Z,34.44
2018-09-18T11:29:46.205Z,34.66
2018-09-18T11:30:46.178Z,34.75
2018-09-18T11:31:46.200Z,35.03
2018-09-18T11:32:46.149Z,33.56
2018-09-18T11:33:46.118Z,32.66
2018-09-18T11:34:46.106Z,33.25
2018-09-18T11:35:46.135Z,32.27
2018-09-18T11:36:46.083Z,31.77
2018-09-18T11:37:46.086Z,32.37
2018-09-18T11:38:46.045Z,31.47
2018-09-18T11:39:46.037Z,31.26
2018-09-18T11:40:46.027Z,32.43
2018-09-18T11:41:46.022Z,31.74
2018-09-18T11:42:46.005Z,31.55
2018-09-18T11:43:46.033Z,31.14
2018-09-18T11:44:45.989Z,29.97
2018-09-18T11:45:46.273Z,31.24
2018-09-18T11:46:46.099Z,31.34
2018-09-18T11:47:45.957Z,31.84
2018-09-18T11:48:45.958Z,31.35
2018-09-18T11:49:45.977Z,31.63
2018-09-18T11:50:45.929Z,31.63
2018-09-18T11:51:45.931Z,31.24
2018-09-18T11:52:45.960Z,30.05
2018-09-18T11:53:45.902Z,29.48
2018-09-18T11:54:45.897Z,28.20
2018-09-18T11:55:45.908Z,29.88
2018-09-18T11:56:45.920Z,29.59
2018-09-18T11:57:45.854Z,29.90
2018-09-18T11:58:45.840Z,29.69
2018-09-18T11:59:45.828Z,28.81
2018-09-18T12:00:45.820Z,29.77
2018-09-18T12:01:45.881Z,29.28
2018-09-18T12:02:45.834Z,29.18
2018-09-18T12:03:45.786Z,30.08
2018-09-18T12:04:45.855Z,29.79
2018-09-18T12:05:45.760Z,29.90
2018-09-18T12:06:45.754Z,30.19
2018-09-18T12:07:45.807Z,30.68
2018-09-18T12:08:45.789Z,30.29
2018-09-18T12:09:45.718Z,30.00
2018-09-18T12:10:45.720Z,30.01
2018-09-18T12:11:45.724Z,30.40
2018-09-18T12:12:45.697Z,30.30
2018-09-18T12:13:45.722Z,30.39
2018-09-18T12:14:45.720Z,29.10
2018-09-18T12:15:45.673Z,29.25
2018-09-18T12:16:45.660Z,28.65
2018-09-18T12:17:45.648Z,28.75
2018-09-18T12:18:45.635Z,29.13
2018-09-18T12:19:45.654Z,28.25
2018-09-18T12:20:45.607Z,28.55
2018-09-18T12:21:45.600Z,29.03
2018-09-18T12:22:45.675Z,27.54
2018-09-18T12:23:45.592Z,26.93
2018-09-18T12:24:45.576Z,27.02
2018-09-18T12:25:45.596Z,26.72
2018-09-18T12:26:45.560Z,26.62
2018-09-18T12:27:45.562Z,26.41
2018-09-18T12:28:45.555Z,26.02
2018-09-18T12:29:45.525Z,26.48
2018-09-18T12:30:45.504Z,25.12
2018-09-18T12:31:45.601Z,25.42
2018-09-18T12:32:45.515Z,25.21
2018-09-18T12:33:45.486Z,25.38
2018-09-18T12:34:45.471Z,25.29
2018-09-18T12:35:45.515Z,24.90
2018-09-18T12:36:45.476Z,24.80
2018-09-18T12:37:45.480Z,24.41
2018-09-18T12:38:45.445Z,25.19
2018-09-18T12:39:45.421Z,24.33
2018-09-18T12:40:45.403Z,24.82
2018-09-18T12:41:45.521Z,25.58
2018-09-18T12:42:45.471Z,25.48
2018-09-18T12:43:45.408Z,25.68
2018-09-18T12:44:45.368Z,25.40
2018-09-18T12:45:45.383Z,25.19
2018-09-18T12:46:45.348Z,25.68
2018-09-18T12:47:45.335Z,24.50
2018-09-18T12:48:45.366Z,25.48
2018-09-18T12:49:45.597Z,25.68
2018-09-18T12:50:45.317Z,24.98
2018-09-18T12:51:45.302Z,25.75
2018-09-18T12:52:45.287Z,24.97